Terminal Aerodrome Forecast
Issued by NWS

Home | Current Version | Previous Version | Text Only | Print | Product List | Glossary On
Versions: 1 2 3 4 5 6 7 8 9 10 11 12 13 14
627
FTUS44 KBMX 282320
TAFTCL
TAF
KTCL 282320Z 2900/2924 18007KT P6SM SCT050
     FM290300 12002KT P6SM VCSH BKN250
     FM290900 02001KT P6SM SCT250=

USA.gov is the U.S. government's official web portal to all federal, state and local government web resources and services.